sensor_id;sensor_type;location;lat;lon;timestamp;P1;durP1;ratioP1;P2;durP2;ratioP2
31210;SDS011;17836;50.948;3.946;2023-07-02T00:00:09;36.25;;;17.35;;
31210;SDS011;17836;50.948;3.946;2023-07-02T00:02:35;32.92;;;16.83;;
31210;SDS011;17836;50.948;3.946;2023-07-02T00:05:00;29.88;;;15.82;;
31210;SDS011;17836;50.948;3.946;2023-07-02T00:07:26;32.20;;;16.37;;
31210;SDS011;17836;50.948;3.946;2023-07-02T00:09:51;35.97;;;17.33;;
31210;SDS011;17836;50.948;3.946;2023-07-02T00:12:16;32.90;;;17.27;;
31210;SDS011;17836;50.948;3.946;2023-07-02T00:14:42;41.55;;;18.67;;
31210;SDS011;17836;50.948;3.946;2023-07-02T00:17:07;27.57;;;16.60;;
31210;SDS011;17836;50.948;3.946;2023-07-02T00:19:32;35.92;;;16.67;;
31210;SDS011;17836;50.948;3.946;2023-07-02T00:21:58;32.20;;;16.17;;
31210;SDS011;17836;50.948;3.946;2023-07-02T00:24:23;38.72;;;18.70;;
31210;SDS011;17836;50.948;3.946;2023-07-02T00:26:48;29.50;;;17.17;;
31210;SDS011;17836;50.948;3.946;2023-07-02T00:29:14;33.83;;;17.83;;
31210;SDS011;17836;50.948;3.946;2023-07-02T00:31:39;31.87;;;17.90;;
31210;SDS011;17836;50.948;3.946;2023-07-02T00:34:04;41.57;;;18.03;;
31210;SDS011;17836;50.948;3.946;2023-07-02T00:36:30;34.83;;;18.17;;
31210;SDS011;17836;50.948;3.946;2023-07-02T00:38:55;35.67;;;19.20;;
31210;SDS011;17836;50.948;3.946;2023-07-02T00:41:21;31.83;;;17.15;;
31210;SDS011;17836;50.948;3.946;2023-07-02T00:43:47;38.60;;;17.70;;
31210;SDS011;17836;50.948;3.946;2023-07-02T00:46:15;29.52;;;17.02;;
31210;SDS011;17836;50.948;3.946;2023-07-02T00:48:53;30.40;;;16.50;;
31210;SDS011;17836;50.948;3.946;2023-07-02T00:51:27;41.35;;;18.05;;
31210;SDS011;17836;50.948;3.946;2023-07-02T00:53:54;36.03;;;18.90;;
31210;SDS011;17836;50.948;3.946;2023-07-02T00:56:22;39.70;;;18.77;;
31210;SDS011;17836;50.948;3.946;2023-07-02T00:58:51;39.28;;;19.20;;
31210;SDS011;17836;50.948;3.946;2023-07-02T01:01:17;32.88;;;17.30;;
31210;SDS011;17836;50.948;3.946;2023-07-02T01:03:53;37.70;;;19.63;;
31210;SDS011;17836;50.948;3.946;2023-07-02T01:06:23;36.13;;;19.00;;
31210;SDS011;17836;50.948;3.946;2023-07-02T01:08:54;41.30;;;19.00;;
31210;SDS011;17836;50.948;3.946;2023-07-02T01:11:19;37.15;;;19.88;;
31210;SDS011;17836;50.948;3.946;2023-07-02T01:13:45;36.05;;;18.77;;
31210;SDS011;17836;50.948;3.946;2023-07-02T01:16:13;34.45;;;18.45;;
31210;SDS011;17836;50.948;3.946;2023-07-02T01:18:39;39.72;;;19.10;;
31210;SDS011;17836;50.948;3.946;2023-07-02T01:21:06;41.08;;;20.17;;
31210;SDS011;17836;50.948;3.946;2023-07-02T01:23:32;40.50;;;20.67;;
31210;SDS011;17836;50.948;3.946;2023-07-02T01:25:57;42.05;;;19.77;;
31210;SDS011;17836;50.948;3.946;2023-07-02T01:28:24;42.90;;;19.60;;
31210;SDS011;17836;50.948;3.946;2023-07-02T01:30:49;36.50;;;18.65;;
31210;SDS011;17836;50.948;3.946;2023-07-02T01:33:17;38.00;;;20.70;;
31210;SDS011;17836;50.948;3.946;2023-07-02T01:35:42;32.38;;;19.27;;
31210;SDS011;17836;50.948;3.946;2023-07-02T01:38:07;40.10;;;20.60;;
31210;SDS011;17836;50.948;3.946;2023-07-02T01:40:33;34.58;;;17.90;;
31210;SDS011;17836;50.948;3.946;2023-07-02T01:42:58;41.63;;;20.73;;
31210;SDS011;17836;50.948;3.946;2023-07-02T01:45:23;45.33;;;21.20;;
31210;SDS011;17836;50.948;3.946;2023-07-02T01:47:49;40.67;;;19.50;;
31210;SDS011;17836;50.948;3.946;2023-07-02T01:50:15;38.42;;;18.98;;
31210;SDS011;17836;50.948;3.946;2023-07-02T01:52:40;42.40;;;20.03;;
31210;SDS011;17836;50.948;3.946;2023-07-02T01:55:05;46.87;;;20.67;;
31210;SDS011;17836;50.948;3.946;2023-07-02T01:57:31;42.03;;;20.50;;
31210;SDS011;17836;50.948;3.946;2023-07-02T01:59:56;44.83;;;21.75;;
31210;SDS011;17836;50.948;3.946;2023-07-02T02:02:22;44.00;;;19.33;;
31210;SDS011;17836;50.948;3.946;2023-07-02T02:04:48;48.15;;;21.00;;
31210;SDS011;17836;50.948;3.946;2023-07-02T02:07:13;43.50;;;21.40;;
31210;SDS011;17836;50.948;3.946;2023-07-02T02:09:39;40.53;;;21.20;;
31210;SDS011;17836;50.948;3.946;2023-07-02T02:12:04;44.60;;;21.43;;
31210;SDS011;17836;50.948;3.946;2023-07-02T02:14:30;42.42;;;21.38;;
31210;SDS011;17836;50.948;3.946;2023-07-02T02:16:55;42.88;;;21.40;;
31210;SDS011;17836;50.948;3.946;2023-07-02T02:19:20;37.33;;;21.07;;
31210;SDS011;17836;50.948;3.946;2023-07-02T02:21:46;40.47;;;20.20;;
31210;SDS011;17836;50.948;3.946;2023-07-02T02:24:14;45.47;;;21.58;;
31210;SDS011;17836;50.948;3.946;2023-07-02T02:26:40;36.60;;;19.77;;
31210;SDS011;17836;50.948;3.946;2023-07-02T02:29:05;40.63;;;19.90;;
31210;SDS011;17836;50.948;3.946;2023-07-02T02:31:30;40.92;;;21.17;;
31210;SDS011;17836;50.948;3.946;2023-07-02T02:33:56;43.22;;;20.92;;
31210;SDS011;17836;50.948;3.946;2023-07-02T02:36:21;44.40;;;21.73;;
31210;SDS011;17836;50.948;3.946;2023-07-02T02:38:46;37.83;;;22.17;;
31210;SDS011;17836;50.948;3.946;2023-07-02T02:41:11;42.43;;;22.77;;
31210;SDS011;17836;50.948;3.946;2023-07-02T02:43:37;44.93;;;20.67;;
31210;SDS011;17836;50.948;3.946;2023-07-02T02:46:05;44.03;;;21.52;;
31210;SDS011;17836;50.948;3.946;2023-07-02T02:48:31;40.00;;;20.73;;
31210;SDS011;17836;50.948;3.946;2023-07-02T02:50:56;43.17;;;22.03;;
31210;SDS011;17836;50.948;3.946;2023-07-02T02:53:21;44.65;;;21.67;;
31210;SDS011;17836;50.948;3.946;2023-07-02T02:55:47;42.30;;;21.55;;
31210;SDS011;17836;50.948;3.946;2023-07-02T02:58:12;45.37;;;22.07;;
31210;SDS011;17836;50.948;3.946;2023-07-02T03:00:39;45.33;;;24.17;;
31210;SDS011;17836;50.948;3.946;2023-07-02T03:03:07;48.78;;;23.15;;
31210;SDS011;17836;50.948;3.946;2023-07-02T03:05:33;43.63;;;20.45;;
31210;SDS011;17836;50.948;3.946;2023-07-02T03:07:58;42.17;;;21.53;;
31210;SDS011;17836;50.948;3.946;2023-07-02T03:10:24;48.75;;;21.63;;
31210;SDS011;17836;50.948;3.946;2023-07-02T03:12:49;43.10;;;22.97;;
31210;SDS011;17836;50.948;3.946;2023-07-02T03:15:14;45.77;;;23.67;;
31210;SDS011;17836;50.948;3.946;2023-07-02T03:17:39;42.33;;;23.13;;
31210;SDS011;17836;50.948;3.946;2023-07-02T03:20:05;44.95;;;22.75;;
31210;SDS011;17836;50.948;3.946;2023-07-02T03:22:30;42.58;;;22.05;;
31210;SDS011;17836;50.948;3.946;2023-07-02T03:24:56;50.43;;;23.00;;
31210;SDS011;17836;50.948;3.946;2023-07-02T03:27:21;50.67;;;22.27;;
31210;SDS011;17836;50.948;3.946;2023-07-02T03:29:46;51.90;;;23.07;;
31210;SDS011;17836;50.948;3.946;2023-07-02T03:32:13;50.90;;;22.73;;
31210;SDS011;17836;50.948;3.946;2023-07-02T03:34:39;49.00;;;23.17;;
31210;SDS011;17836;50.948;3.946;2023-07-02T03:37:04;47.60;;;22.27;;
31210;SDS011;17836;50.948;3.946;2023-07-02T03:39:34;45.92;;;23.30;;
31210;SDS011;17836;50.948;3.946;2023-07-02T03:42:04;49.10;;;24.40;;
31210;SDS011;17836;50.948;3.946;2023-07-02T03:44:29;43.67;;;24.02;;
31210;SDS011;17836;50.948;3.946;2023-07-02T03:46:57;44.20;;;22.90;;
31210;SDS011;17836;50.948;3.946;2023-07-02T03:49:23;43.08;;;22.38;;
31210;SDS011;17836;50.948;3.946;2023-07-02T03:51:48;50.03;;;23.30;;
31210;SDS011;17836;50.948;3.946;2023-07-02T03:54:13;51.03;;;24.20;;
31210;SDS011;17836;50.948;3.946;2023-07-02T03:56:38;52.43;;;25.67;;
31210;SDS011;17836;50.948;3.946;2023-07-02T03:59:04;53.53;;;23.93;;
31210;SDS011;17836;50.948;3.946;2023-07-02T04:01:29;39.03;;;21.73;;
31210;SDS011;17836;50.948;3.946;2023-07-02T04:03:54;47.93;;;23.07;;
31210;SDS011;17836;50.948;3.946;2023-07-02T04:06:23;47.50;;;23.65;;
31210;SDS011;17836;50.948;3.946;2023-07-02T04:08:51;48.00;;;23.13;;
31210;SDS011;17836;50.948;3.946;2023-07-02T04:11:16;55.22;;;23.98;;
31210;SDS011;17836;50.948;3.946;2023-07-02T04:13:41;55.80;;;23.27;;
31210;SDS011;17836;50.948;3.946;2023-07-02T04:16:09;49.25;;;22.73;;
31210;SDS011;17836;50.948;3.946;2023-07-02T04:18:36;53.37;;;23.53;;
31210;SDS011;17836;50.948;3.946;2023-07-02T04:21:02;47.97;;;22.70;;
31210;SDS011;17836;50.948;3.946;2023-07-02T04:23:27;48.80;;;23.90;;
31210;SDS011;17836;50.948;3.946;2023-07-02T04:25:53;50.60;;;23.83;;
31210;SDS011;17836;50.948;3.946;2023-07-02T04:28:18;51.08;;;23.75;;
31210;SDS011;17836;50.948;3.946;2023-07-02T04:30:44;51.05;;;23.63;;
31210;SDS011;17836;50.948;3.946;2023-07-02T04:33:09;47.08;;;23.75;;
31210;SDS011;17836;50.948;3.946;2023-07-02T04:35:39;50.95;;;22.77;;
31210;SDS011;17836;50.948;3.946;2023-07-02T04:38:04;49.55;;;24.08;;
31210;SDS011;17836;50.948;3.946;2023-07-02T04:40:30;55.65;;;23.63;;
31210;SDS011;17836;50.948;3.946;2023-07-02T04:42:55;46.77;;;22.60;;
31210;SDS011;17836;50.948;3.946;2023-07-02T04:45:23;46.08;;;22.70;;
31210;SDS011;17836;50.948;3.946;2023-07-02T04:47:51;53.80;;;22.70;;
31210;SDS011;17836;50.948;3.946;2023-07-02T04:50:17;50.60;;;24.80;;
31210;SDS011;17836;50.948;3.946;2023-07-02T04:52:42;50.42;;;23.65;;
31210;SDS011;17836;50.948;3.946;2023-07-02T04:55:07;47.60;;;24.50;;
31210;SDS011;17836;50.948;3.946;2023-07-02T04:57:33;48.58;;;24.90;;
31210;SDS011;17836;50.948;3.946;2023-07-02T04:59:58;47.90;;;22.53;;
31210;SDS011;17836;50.948;3.946;2023-07-02T05:02:25;50.05;;;24.17;;
31210;SDS011;17836;50.948;3.946;2023-07-02T05:04:50;50.00;;;22.00;;
31210;SDS011;17836;50.948;3.946;2023-07-02T05:07:16;46.37;;;22.93;;
31210;SDS011;17836;50.948;3.946;2023-07-02T05:09:41;49.63;;;22.63;;
31210;SDS011;17836;50.948;3.946;2023-07-02T05:12:07;44.05;;;21.75;;
31210;SDS011;17836;50.948;3.946;2023-07-02T05:14:32;46.45;;;21.58;;
31210;SDS011;17836;50.948;3.946;2023-07-02T05:16:57;51.57;;;23.83;;
31210;SDS011;17836;50.948;3.946;2023-07-02T05:19:23;45.37;;;22.00;;
31210;SDS011;17836;50.948;3.946;2023-07-02T05:21:48;42.65;;;22.02;;
31210;SDS011;17836;50.948;3.946;2023-07-02T05:24:14;47.03;;;22.40;;
31210;SDS011;17836;50.948;3.946;2023-07-02T05:26:39;45.77;;;21.30;;
31210;SDS011;17836;50.948;3.946;2023-07-02T05:29:04;46.13;;;21.20;;
31210;SDS011;17836;50.948;3.946;2023-07-02T05:31:32;46.08;;;21.35;;
31210;SDS011;17836;50.948;3.946;2023-07-02T05:34:00;39.37;;;18.60;;
31210;SDS011;17836;50.948;3.946;2023-07-02T05:36:25;42.43;;;21.37;;
31210;SDS011;17836;50.948;3.946;2023-07-02T05:38:50;44.10;;;20.47;;
31210;SDS011;17836;50.948;3.946;2023-07-02T05:41:19;45.63;;;20.23;;
31210;SDS011;17836;50.948;3.946;2023-07-02T05:43:44;33.08;;;18.83;;
31210;SDS011;17836;50.948;3.946;2023-07-02T05:46:10;42.13;;;19.50;;
31210;SDS011;17836;50.948;3.946;2023-07-02T05:48:35;40.27;;;20.13;;
31210;SDS011;17836;50.948;3.946;2023-07-02T05:51:00;38.33;;;19.90;;
31210;SDS011;17836;50.948;3.946;2023-07-02T05:53:26;38.50;;;18.30;;
31210;SDS011;17836;50.948;3.946;2023-07-02T05:55:53;39.67;;;18.73;;
31210;SDS011;17836;50.948;3.946;2023-07-02T05:58:19;35.80;;;18.83;;
31210;SDS011;17836;50.948;3.946;2023-07-02T06:00:44;30.97;;;18.50;;
31210;SDS011;17836;50.948;3.946;2023-07-02T06:03:14;30.95;;;17.48;;
31210;SDS011;17836;50.948;3.946;2023-07-02T06:05:44;39.10;;;18.52;;
31210;SDS011;17836;50.948;3.946;2023-07-02T06:08:09;30.07;;;16.87;;
31210;SDS011;17836;50.948;3.946;2023-07-02T06:10:36;36.20;;;17.35;;
31210;SDS011;17836;50.948;3.946;2023-07-02T06:13:02;35.03;;;18.40;;
31210;SDS011;17836;50.948;3.946;2023-07-02T06:15:27;32.03;;;17.07;;
31210;SDS011;17836;50.948;3.946;2023-07-02T06:17:52;37.30;;;17.60;;
31210;SDS011;17836;50.948;3.946;2023-07-02T06:20:17;36.23;;;17.07;;
31210;SDS011;17836;50.948;3.946;2023-07-02T06:22:45;30.00;;;15.68;;
31210;SDS011;17836;50.948;3.946;2023-07-02T06:25:10;35.63;;;16.93;;
31210;SDS011;17836;50.948;3.946;2023-07-02T06:27:36;29.13;;;14.77;;
31210;SDS011;17836;50.948;3.946;2023-07-02T06:30:01;25.70;;;13.70;;
31210;SDS011;17836;50.948;3.946;2023-07-02T06:32:26;27.42;;;14.75;;
31210;SDS011;17836;50.948;3.946;2023-07-02T06:34:51;29.00;;;15.20;;
31210;SDS011;17836;50.948;3.946;2023-07-02T06:37:19;29.33;;;14.95;;
31210;SDS011;17836;50.948;3.946;2023-07-02T06:39:44;25.30;;;14.52;;
31210;SDS011;17836;50.948;3.946;2023-07-02T06:42:10;25.87;;;13.63;;
31210;SDS011;17836;50.948;3.946;2023-07-02T06:44:35;26.37;;;13.87;;
31210;SDS011;17836;50.948;3.946;2023-07-02T06:47:00;28.07;;;14.33;;
31210;SDS011;17836;50.948;3.946;2023-07-02T06:49:28;28.42;;;14.65;;
31210;SDS011;17836;50.948;3.946;2023-07-02T06:51:57;24.17;;;13.77;;
31210;SDS011;17836;50.948;3.946;2023-07-02T06:54:25;27.45;;;14.60;;
31210;SDS011;17836;50.948;3.946;2023-07-02T06:56:53;26.85;;;12.85;;
31210;SDS011;17836;50.948;3.946;2023-07-02T06:59:21;23.20;;;12.70;;
31210;SDS011;17836;50.948;3.946;2023-07-02T07:01:47;30.58;;;12.52;;
31210;SDS011;17836;50.948;3.946;2023-07-02T07:04:14;19.95;;;11.73;;
31210;SDS011;17836;50.948;3.946;2023-07-02T07:06:40;24.63;;;12.73;;
31210;SDS011;17836;50.948;3.946;2023-07-02T07:09:05;21.00;;;11.45;;
31210;SDS011;17836;50.948;3.946;2023-07-02T07:11:30;22.25;;;10.55;;
31210;SDS011;17836;50.948;3.946;2023-07-02T07:13:56;21.35;;;11.05;;
31210;SDS011;17836;50.948;3.946;2023-07-02T07:16:21;19.77;;;10.07;;
31210;SDS011;17836;50.948;3.946;2023-07-02T07:18:49;23.08;;;10.65;;
31210;SDS011;17836;50.948;3.946;2023-07-02T07:21:15;16.02;;;10.13;;
31210;SDS011;17836;50.948;3.946;2023-07-02T07:23:42;24.80;;;11.45;;
31210;SDS011;17836;50.948;3.946;2023-07-02T07:26:07;18.83;;;10.13;;
31210;SDS011;17836;50.948;3.946;2023-07-02T07:28:32;21.10;;;9.60;;
31210;SDS011;17836;50.948;3.946;2023-07-02T07:30:58;19.77;;;9.87;;
31210;SDS011;17836;50.948;3.946;2023-07-02T07:33:23;19.90;;;9.67;;
31210;SDS011;17836;50.948;3.946;2023-07-02T07:35:51;17.23;;;9.35;;
31210;SDS011;17836;50.948;3.946;2023-07-02T07:38:16;23.10;;;10.93;;
31210;SDS011;17836;50.948;3.946;2023-07-02T07:40:44;17.00;;;8.57;;
31210;SDS011;17836;50.948;3.946;2023-07-02T07:43:12;16.63;;;8.82;;
31210;SDS011;17836;50.948;3.946;2023-07-02T07:45:37;22.92;;;9.55;;
31210;SDS011;17836;50.948;3.946;2023-07-02T07:48:06;17.07;;;9.60;;
31210;SDS011;17836;50.948;3.946;2023-07-02T07:50:31;18.00;;;8.65;;
31210;SDS011;17836;50.948;3.946;2023-07-02T07:52:56;17.60;;;8.90;;
31210;SDS011;17836;50.948;3.946;2023-07-02T07:55:22;15.67;;;9.70;;
31210;SDS011;17836;50.948;3.946;2023-07-02T07:57:47;16.02;;;8.93;;
31210;SDS011;17836;50.948;3.946;2023-07-02T08:00:12;14.43;;;8.03;;
31210;SDS011;17836;50.948;3.946;2023-07-02T08:02:38;14.98;;;8.82;;
31210;SDS011;17836;50.948;3.946;2023-07-02T08:05:04;16.02;;;8.45;;
31210;SDS011;17836;50.948;3.946;2023-07-02T08:07:31;17.67;;;9.15;;
31210;SDS011;17836;50.948;3.946;2023-07-02T08:09:57;15.68;;;9.30;;
31210;SDS011;17836;50.948;3.946;2023-07-02T08:12:22;19.20;;;9.70;;
31210;SDS011;17836;50.948;3.946;2023-07-02T08:14:51;15.05;;;10.73;;
31210;SDS011;17836;50.948;3.946;2023-07-02T08:17:17;18.55;;;9.82;;
31210;SDS011;17836;50.948;3.946;2023-07-02T08:19:44;20.83;;;10.40;;
31210;SDS011;17836;50.948;3.946;2023-07-02T08:22:10;20.05;;;10.35;;
31210;SDS011;17836;50.948;3.946;2023-07-02T08:24:35;18.33;;;9.83;;
31210;SDS011;17836;50.948;3.946;2023-07-02T08:27:00;19.27;;;10.43;;
31210;SDS011;17836;50.948;3.946;2023-07-02T08:29:27;20.13;;;11.43;;
31210;SDS011;17836;50.948;3.946;2023-07-02T08:31:57;20.48;;;10.60;;
31210;SDS011;17836;50.948;3.946;2023-07-02T08:34:23;21.98;;;11.27;;
31210;SDS011;17836;50.948;3.946;2023-07-02T08:36:48;20.95;;;10.70;;
31210;SDS011;17836;50.948;3.946;2023-07-02T08:39:14;22.03;;;11.70;;
31210;SDS011;17836;50.948;3.946;2023-07-02T08:41:46;19.10;;;10.75;;
31210;SDS011;17836;50.948;3.946;2023-07-02T08:44:12;26.95;;;11.70;;
31210;SDS011;17836;50.948;3.946;2023-07-02T08:46:38;24.33;;;10.90;;
31210;SDS011;17836;50.948;3.946;2023-07-02T08:49:04;23.27;;;11.73;;
31210;SDS011;17836;50.948;3.946;2023-07-02T08:51:29;21.50;;;10.50;;
31210;SDS011;17836;50.948;3.946;2023-07-02T08:53:54;27.27;;;11.67;;
31210;SDS011;17836;50.948;3.946;2023-07-02T08:56:19;24.47;;;11.40;;
31210;SDS011;17836;50.948;3.946;2023-07-02T08:58:47;21.65;;;10.77;;
31210;SDS011;17836;50.948;3.946;2023-07-02T09:01:13;18.27;;;10.53;;
31210;SDS011;17836;50.948;3.946;2023-07-02T09:03:39;19.77;;;11.23;;
31210;SDS011;17836;50.948;3.946;2023-07-02T09:06:08;25.23;;;11.23;;
31210;SDS011;17836;50.948;3.946;2023-07-02T09:08:36;20.60;;;10.50;;
31210;SDS011;17836;50.948;3.946;2023-07-02T09:11:08;20.20;;;10.55;;
31210;SDS011;17836;50.948;3.946;2023-07-02T09:13:44;24.67;;;11.50;;
31210;SDS011;17836;50.948;3.946;2023-07-02T09:16:23;23.67;;;10.90;;
31210;SDS011;17836;50.948;3.946;2023-07-02T09:21:22;17.35;;;10.20;;
31210;SDS011;17836;50.948;3.946;2023-07-02T09:23:50;22.75;;;10.43;;
31210;SDS011;17836;50.948;3.946;2023-07-02T09:26:19;19.03;;;10.37;;
31210;SDS011;17836;50.948;3.946;2023-07-02T09:28:44;21.67;;;10.15;;
31210;SDS011;17836;50.948;3.946;2023-07-02T09:31:14;18.80;;;9.65;;
31210;SDS011;17836;50.948;3.946;2023-07-02T09:33:39;23.00;;;10.15;;
31210;SDS011;17836;50.948;3.946;2023-07-02T09:36:06;19.85;;;10.75;;
31210;SDS011;17836;50.948;3.946;2023-07-02T09:38:34;24.27;;;11.30;;
31210;SDS011;17836;50.948;3.946;2023-07-02T09:40:59;19.20;;;9.70;;
31210;SDS011;17836;50.948;3.946;2023-07-02T09:43:24;23.23;;;10.15;;
31210;SDS011;17836;50.948;3.946;2023-07-02T09:45:53;20.00;;;9.93;;
31210;SDS011;17836;50.948;3.946;2023-07-02T09:48:19;14.73;;;9.20;;
31210;SDS011;17836;50.948;3.946;2023-07-02T09:50:47;19.48;;;10.00;;
31210;SDS011;17836;50.948;3.946;2023-07-02T09:53:15;20.80;;;9.68;;
31210;SDS011;17836;50.948;3.946;2023-07-02T09:55:44;21.47;;;9.40;;
31210;SDS011;17836;50.948;3.946;2023-07-02T09:58:11;14.45;;;8.98;;
31210;SDS011;17836;50.948;3.946;2023-07-02T10:00:39;19.40;;;9.25;;
31210;SDS011;17836;50.948;3.946;2023-07-02T10:03:10;18.17;;;8.65;;
31210;SDS011;17836;50.948;3.946;2023-07-02T10:05:35;17.92;;;8.60;;
31210;SDS011;17836;50.948;3.946;2023-07-02T10:08:16;19.97;;;9.10;;
31210;SDS011;17836;50.948;3.946;2023-07-02T10:10:46;17.67;;;8.63;;
31210;SDS011;17836;50.948;3.946;2023-07-02T10:13:14;18.00;;;8.77;;
31210;SDS011;17836;50.948;3.946;2023-07-02T10:15:39;17.67;;;9.55;;
31210;SDS011;17836;50.948;3.946;2023-07-02T10:18:05;14.55;;;8.43;;
31210;SDS011;17836;50.948;3.946;2023-07-02T10:20:31;20.55;;;9.25;;
31210;SDS011;17836;50.948;3.946;2023-07-02T10:22:57;16.58;;;8.35;;
31210;SDS011;17836;50.948;3.946;2023-07-02T10:25:27;21.50;;;10.18;;
31210;SDS011;17836;50.948;3.946;2023-07-02T10:27:53;15.60;;;8.85;;
31210;SDS011;17836;50.948;3.946;2023-07-02T10:30:18;14.80;;;7.80;;
31210;SDS011;17836;50.948;3.946;2023-07-02T10:32:43;11.48;;;7.18;;
31210;SDS011;17836;50.948;3.946;2023-07-02T10:35:15;19.08;;;8.75;;
31210;SDS011;17836;50.948;3.946;2023-07-02T10:37:43;13.85;;;8.15;;
31210;SDS011;17836;50.948;3.946;2023-07-02T10:40:09;16.73;;;7.75;;
31210;SDS011;17836;50.948;3.946;2023-07-02T10:42:47;12.80;;;7.03;;
31210;SDS011;17836;50.948;3.946;2023-07-02T10:45:12;18.13;;;8.02;;
31210;SDS011;17836;50.948;3.946;2023-07-02T10:47:41;15.25;;;7.20;;
31210;SDS011;17836;50.948;3.946;2023-07-02T10:52:58;10.95;;;6.63;;
31210;SDS011;17836;50.948;3.946;2023-07-02T10:55:24;15.93;;;7.50;;
31210;SDS011;17836;50.948;3.946;2023-07-02T10:57:50;13.18;;;7.13;;
31210;SDS011;17836;50.948;3.946;2023-07-02T11:00:16;15.30;;;7.18;;
31210;SDS011;17836;50.948;3.946;2023-07-02T11:02:41;13.55;;;7.47;;
31210;SDS011;17836;50.948;3.946;2023-07-02T11:05:07;15.40;;;6.68;;
31210;SDS011;17836;50.948;3.946;2023-07-02T11:07:46;12.32;;;7.07;;
31210;SDS011;17836;50.948;3.946;2023-07-02T11:12:43;13.07;;;7.90;;
31210;SDS011;17836;50.948;3.946;2023-07-02T11:15:15;11.70;;;7.63;;
31210;SDS011;17836;50.948;3.946;2023-07-02T11:17:42;16.20;;;7.25;;
31210;SDS011;17836;50.948;3.946;2023-07-02T11:20:08;14.10;;;8.20;;
31210;SDS011;17836;50.948;3.946;2023-07-02T11:22:34;14.75;;;7.68;;
31210;SDS011;17836;50.948;3.946;2023-07-02T11:27:34;20.05;;;9.23;;
31210;SDS011;17836;50.948;3.946;2023-07-02T11:30:01;16.27;;;8.73;;
31210;SDS011;17836;50.948;3.946;2023-07-02T11:32:27;18.10;;;9.32;;
31210;SDS011;17836;50.948;3.946;2023-07-02T11:34:53;13.10;;;7.40;;
31210;SDS011;17836;50.948;3.946;2023-07-02T11:37:19;14.23;;;7.65;;
31210;SDS011;17836;50.948;3.946;2023-07-02T11:39:46;12.48;;;6.68;;
31210;SDS011;17836;50.948;3.946;2023-07-02T11:42:12;12.20;;;7.65;;
31210;SDS011;17836;50.948;3.946;2023-07-02T11:44:37;16.20;;;6.70;;
31210;SDS011;17836;50.948;3.946;2023-07-02T11:47:05;15.85;;;7.15;;
31210;SDS011;17836;50.948;3.946;2023-07-02T11:49:30;12.88;;;7.22;;
31210;SDS011;17836;50.948;3.946;2023-07-02T11:51:55;14.23;;;6.77;;
31210;SDS011;17836;50.948;3.946;2023-07-02T11:54:20;11.03;;;6.33;;
31210;SDS011;17836;50.948;3.946;2023-07-02T11:56:46;15.73;;;7.40;;
31210;SDS011;17836;50.948;3.946;2023-07-02T11:59:11;15.38;;;7.10;;
31210;SDS011;17836;50.948;3.946;2023-07-02T12:01:36;11.20;;;6.33;;
31210;SDS011;17836;50.948;3.946;2023-07-02T12:04:02;13.37;;;6.27;;
31210;SDS011;17836;50.948;3.946;2023-07-02T12:06:30;14.18;;;6.65;;
31210;SDS011;17836;50.948;3.946;2023-07-02T12:08:55;15.07;;;6.72;;
31210;SDS011;17836;50.948;3.946;2023-07-02T12:11:20;13.17;;;7.00;;
31210;SDS011;17836;50.948;3.946;2023-07-02T12:13:45;11.20;;;6.17;;
31210;SDS011;17836;50.948;3.946;2023-07-02T12:16:11;9.97;;;6.07;;
31210;SDS011;17836;50.948;3.946;2023-07-02T12:18:36;14.43;;;6.63;;
31210;SDS011;17836;50.948;3.946;2023-07-02T12:21:01;13.53;;;6.60;;
31210;SDS011;17836;50.948;3.946;2023-07-02T12:23:26;13.63;;;6.97;;
31210;SDS011;17836;50.948;3.946;2023-07-02T12:25:52;12.33;;;6.47;;
31210;SDS011;17836;50.948;3.946;2023-07-02T12:28:19;12.93;;;6.97;;
31210;SDS011;17836;50.948;3.946;2023-07-02T12:30:47;16.73;;;7.20;;
31210;SDS011;17836;50.948;3.946;2023-07-02T12:33:12;13.35;;;6.85;;
31210;SDS011;17836;50.948;3.946;2023-07-02T12:35:38;15.00;;;7.43;;
31210;SDS011;17836;50.948;3.946;2023-07-02T12:38:05;13.73;;;7.13;;
31210;SDS011;17836;50.948;3.946;2023-07-02T12:40:33;10.00;;;6.57;;
31210;SDS011;17836;50.948;3.946;2023-07-02T12:42:59;12.88;;;6.90;;
31210;SDS011;17836;50.948;3.946;2023-07-02T12:45:24;18.37;;;7.70;;
31210;SDS011;17836;50.948;3.946;2023-07-02T12:47:49;11.40;;;6.60;;
31210;SDS011;17836;50.948;3.946;2023-07-02T12:50:14;11.70;;;6.27;;
31210;SDS011;17836;50.948;3.946;2023-07-02T12:52:40;12.10;;;6.23;;
31210;SDS011;17836;50.948;3.946;2023-07-02T12:55:05;16.03;;;6.80;;
31210;SDS011;17836;50.948;3.946;2023-07-02T12:57:31;12.48;;;6.05;;
31210;SDS011;17836;50.948;3.946;2023-07-02T12:59:56;10.23;;;5.83;;
31210;SDS011;17836;50.948;3.946;2023-07-02T13:02:22;12.13;;;6.88;;
31210;SDS011;17836;50.948;3.946;2023-07-02T13:04:48;12.23;;;6.45;;
31210;SDS011;17836;50.948;3.946;2023-07-02T13:07:13;10.77;;;6.25;;
31210;SDS011;17836;50.948;3.946;2023-07-02T13:09:40;11.57;;;6.40;;
31210;SDS011;17836;50.948;3.946;2023-07-02T13:12:06;12.37;;;6.40;;
31210;SDS011;17836;50.948;3.946;2023-07-02T13:14:34;11.43;;;6.68;;
31210;SDS011;17836;50.948;3.946;2023-07-02T13:16:59;13.25;;;6.63;;
31210;SDS011;17836;50.948;3.946;2023-07-02T13:19:27;11.00;;;5.85;;
31210;SDS011;17836;50.948;3.946;2023-07-02T13:21:52;14.55;;;7.18;;
31210;SDS011;17836;50.948;3.946;2023-07-02T13:24:18;12.20;;;6.73;;
31210;SDS011;17836;50.948;3.946;2023-07-02T13:26:43;13.70;;;6.37;;
31210;SDS011;17836;50.948;3.946;2023-07-02T13:29:08;11.80;;;6.23;;
31210;SDS011;17836;50.948;3.946;2023-07-02T13:31:36;16.83;;;6.77;;
31210;SDS011;17836;50.948;3.946;2023-07-02T13:34:01;12.32;;;6.38;;
31210;SDS011;17836;50.948;3.946;2023-07-02T13:36:27;9.93;;;6.10;;
31210;SDS011;17836;50.948;3.946;2023-07-02T13:38:53;14.38;;;6.10;;
31210;SDS011;17836;50.948;3.946;2023-07-02T13:41:19;12.70;;;6.45;;
31210;SDS011;17836;50.948;3.946;2023-07-02T13:43:44;14.47;;;6.07;;
31210;SDS011;17836;50.948;3.946;2023-07-02T13:46:09;16.00;;;5.97;;
31210;SDS011;17836;50.948;3.946;2023-07-02T13:48:34;11.07;;;5.80;;
31210;SDS011;17836;50.948;3.946;2023-07-02T13:51:00;12.70;;;6.47;;
31210;SDS011;17836;50.948;3.946;2023-07-02T13:53:25;14.37;;;6.10;;
31210;SDS011;17836;50.948;3.946;2023-07-02T13:55:50;11.07;;;5.50;;
31210;SDS011;17836;50.948;3.946;2023-07-02T13:58:18;11.83;;;6.13;;
31210;SDS011;17836;50.948;3.946;2023-07-02T14:00:43;10.27;;;6.55;;
31210;SDS011;17836;50.948;3.946;2023-07-02T14:03:08;11.17;;;5.30;;
31210;SDS011;17836;50.948;3.946;2023-07-02T14:05:36;11.00;;;5.23;;
31210;SDS011;17836;50.948;3.946;2023-07-02T14:08:01;12.02;;;5.45;;
31210;SDS011;17836;50.948;3.946;2023-07-02T14:10:26;9.00;;;4.97;;
31210;SDS011;17836;50.948;3.946;2023-07-02T14:12:53;13.52;;;5.70;;
31210;SDS011;17836;50.948;3.946;2023-07-02T14:15:19;10.38;;;5.43;;
31210;SDS011;17836;50.948;3.946;2023-07-02T14:17:46;8.68;;;4.78;;
31210;SDS011;17836;50.948;3.946;2023-07-02T14:20:11;9.03;;;5.07;;
31210;SDS011;17836;50.948;3.946;2023-07-02T14:22:37;15.32;;;6.45;;
31210;SDS011;17836;50.948;3.946;2023-07-02T14:25:02;10.43;;;5.97;;
31210;SDS011;17836;50.948;3.946;2023-07-02T14:27:28;11.60;;;5.40;;
31210;SDS011;17836;50.948;3.946;2023-07-02T14:29:55;13.13;;;5.37;;